Time;durP1;ratioP1;P1;durP2;ratioP2;P2;SDS_P1;SDS_P2;PMS_P1;PMS_P2;Temp;Humidity;BMP_temperature;BMP_pressure;BME280_temperature;BME280_humidity;BME280_pressure;Samples;Min_cycle;Max_cycle;Signal;HPM_P1;HPM_P2
2022/10/15 00:02:23;;;;;;;5.10;2.80;;;;;;;19.73;39.48;101215.98;107472;1284;80272;-92
2022/10/15 00:05:36;;;;;;;5.00;2.70;;;;;;;19.72;39.28;101217.80;107753;1283;72329;-92
2022/10/15 00:11:40;;;;;;;6.90;3.10;;;;;;;19.72;39.27;101217.60;107948;1282;66691;-91
2022/10/15 00:17:25;;;;;;;5.10;2.90;;;;;;;19.72;39.20;101218.31;107769;1283;80781;-91
2022/10/15 00:23:05;;;;;;;6.60;2.80;;;;;;;19.71;39.23;101211.30;107731;1283;66176;-92
2022/10/15 00:29:01;;;;;;;6.40;3.00;;;;;;;19.71;38.92;101203.29;107708;1283;72156;-92
2022/10/15 00:41:23;;;;;;;6.20;2.90;;;;;;;19.69;39.02;101201.46;107525;1284;66860;-92
2022/10/15 00:44:37;;;;;;;4.90;3.10;;;;;;;19.69;38.94;101199.36;107468;1284;73352;-90
2022/10/15 00:48:00;;;;;;;4.50;3.10;;;;;;;19.68;38.91;101199.40;107503;1284;81848;-91
2022/10/15 00:53:39;;;;;;;6.40;3.30;;;;;;;19.67;38.96;101197.51;107736;1283;66339;-90
2022/10/15 00:59:16;;;;;;;7.40;3.50;;;;;;;19.67;38.88;101192.70;107831;1283;66969;-93
2022/10/15 01:08:42;;;;;;;5.20;3.30;;;;;;;19.67;38.81;101190.65;107491;1284;66120;-92
2022/10/15 01:15:13;;;;;;;7.60;3.70;;;;;;;19.66;38.69;101190.18;107702;1283;73169;-92
2022/10/15 01:23:42;;;;;;;6.00;3.40;;;;;;;19.65;38.69;101189.34;107681;1283;66609;-93
2022/10/15 01:32:23;;;;;;;5.40;3.40;;;;;;;19.64;38.68;101189.99;107722;1283;81764;-94
2022/10/15 01:38:26;;;;;;;;;;;;;;;19.64;38.64;101193.62;107759;1283;66782;-93
2022/10/15 01:44:02;;;;;;;6.60;3.30;;;;;;;19.62;38.61;101190.67;107759;1283;73308;-92
2022/10/15 01:47:05;;;;;;;5.70;3.50;;;;;;;19.61;38.54;101187.48;107772;1283;81263;-92
2022/10/15 01:53:10;;;;;;;8.20;3.20;;;;;;;19.61;38.55;101184.69;107706;1283;67313;-93
2022/10/15 01:56:37;;;;;;;7.10;3.40;;;;;;;19.60;38.51;101187.23;107775;1283;66271;-92
2022/10/15 02:05:52;;;;;;;8.30;3.50;;;;;;;19.61;38.42;101186.72;107522;1285;71509;-93
2022/10/15 02:11:29;;;;;;;5.40;3.10;;;;;;;19.60;38.38;101191.72;107749;1283;66774;-92
2022/10/15 02:14:37;;;;;;;7.50;3.40;;;;;;;19.60;38.38;101191.26;107915;1283;71728;-93
2022/10/15 02:21:17;;;;;;;6.00;3.70;;;;;;;19.59;38.36;101190.52;107930;1282;72259;-92
2022/10/15 02:26:57;;;;;;;5.60;3.40;;;;;;;19.59;38.26;101186.59;107762;1283;66244;-91
2022/10/15 02:32:53;;;;;;;6.20;3.60;;;;;;;19.58;38.25;101188.05;107704;1284;81703;-92
2022/10/15 02:38:30;;;;;;;4.80;3.40;;;;;;;19.58;38.21;101185.66;107685;1283;66161;-92
2022/10/15 02:44:25;;;;;;;5.40;3.50;;;;;;;19.57;38.11;101183.60;107610;1284;73697;-91
2022/10/15 02:50:49;;;;;;;6.00;3.60;;;;;;;19.57;38.17;101192.13;107744;1283;72225;-93
2022/10/15 02:54:21;;;;;;;5.10;3.40;;;;;;;19.56;38.13;101192.10;107570;1284;66188;-92
2022/10/15 03:00:11;;;;;;;4.30;3.10;;;;;;;19.56;38.05;101182.40;107570;1284;73180;-92
2022/10/15 03:08:38;;;;;;;4.70;3.70;;;;;;;19.55;37.89;101183.25;107658;1283;66280;-92
2022/10/15 03:17:21;;;;;;;5.80;3.50;;;;;;;19.54;37.95;101184.72;107678;1283;80326;-92
2022/10/15 03:23:00;;;;;;;7.70;3.30;;;;;;;19.54;37.96;101183.79;107717;1283;66124;-93
2022/10/15 03:31:39;;;;;;;5.70;3.50;;;;;;;19.54;37.72;101181.55;107574;1284;81784;-93
2022/10/15 03:43:41;;;;;;;4.60;3.40;;;;;;;19.52;37.73;101182.83;107763;1283;73422;-92
2022/10/15 03:49:24;;;;;;;5.70;3.50;;;;;;;19.52;37.58;101186.36;107813;1283;72193;-92
2022/10/15 03:55:27;;;;;;;7.00;4.00;;;;;;;19.52;37.52;101184.23;107582;1284;68221;-93
2022/10/15 04:01:46;;;;;;;5.80;3.30;;;;;;;19.51;37.55;101197.53;107675;1283;80259;-93
2022/10/15 04:04:50;;;;;;;4.90;3.50;;;;;;;19.51;37.54;101197.27;107769;1283;72365;-91
2022/10/15 04:08:03;;;;;;;4.40;3.40;;;;;;;19.50;37.42;101194.66;107574;1284;66156;-90
2022/10/15 04:17:36;;;;;;;6.00;3.60;;;;;;;19.49;37.42;101194.09;107378;1285;81742;-90
2022/10/15 04:23:26;;;;;;;6.00;4.10;;;;;;;19.49;37.33;101195.35;107686;1282;66783;-93
2022/10/15 04:31:59;;;;;;;7.60;4.00;;;;;;;19.50;37.24;101200.88;107732;1283;81881;-93
2022/10/15 04:43:45;;;;;;;5.40;3.60;;;;;;;19.49;37.15;101210.30;107581;1284;72770;-93
2022/10/15 04:52:39;;;;;;;5.60;4.30;;;;;;;19.48;37.03;101210.34;107572;1284;66620;-91
2022/10/15 04:58:21;;;;;;;6.10;4.30;;;;;;;19.48;37.05;101213.24;107423;1285;72702;-93
2022/10/15 05:04:39;;;;;;;8.10;4.40;;;;;;;19.47;37.01;101218.59;107424;1284;71579;-92
2022/10/15 05:10:20;;;;;;;9.30;5.00;;;;;;;19.47;36.88;101217.47;107543;1284;67428;-91
2022/10/15 05:18:50;;;;;;;8.00;4.80;;;;;;;19.46;36.92;101221.38;107490;1284;71404;-92
2022/10/15 05:21:53;;;;;;;13.60;4.80;;;;;;;19.45;36.90;101224.69;107559;1284;67131;-92
2022/10/15 05:27:45;;;;;;;6.20;4.40;;;;;;;19.45;36.91;101221.81;107619;1284;72581;-90
2022/10/15 05:30:55;;;;;;;6.50;4.70;;;;;;;19.45;36.79;101229.77;107691;1284;81687;-90
2022/10/15 05:39:35;;;;;;;8.50;4.60;;;;;;;19.45;36.86;101231.02;107562;1286;66774;-92
2022/10/15 05:48:07;;;;;;;8.90;4.90;;;;;;;19.46;36.66;101239.90;107586;1285;72315;-91
2022/10/15 05:53:45;;;;;;;6.10;4.60;;;;;;;19.46;36.63;101244.91;107400;1284;66283;-92
2022/10/15 05:59:23;;;;;;;7.90;4.40;;;;;;;19.48;36.58;101247.90;107502;1286;81259;-92
2022/10/15 06:08:02;;;;;;;7.00;4.50;;;;;;;19.48;36.58;101247.15;107464;1287;66240;-92
2022/10/15 06:13:42;;;;;;;8.70;4.70;;;;;;;19.49;36.63;101251.95;107554;1284;73728;-92
2022/10/15 06:19:23;;;;;;;8.90;4.70;;;;;;;19.48;36.55;101250.52;107425;1285;66706;-91
2022/10/15 06:22:53;;;;;;;8.90;4.50;;;;;;;19.49;36.59;101253.28;107660;1284;66804;-90
2022/10/15 06:28:34;;;;;;;9.00;4.60;;;;;;;19.48;36.40;101264.91;107792;1283;72761;-93
2022/10/15 06:31:42;;;;;;;7.80;4.20;;;;;;;19.47;36.23;101263.09;107749;1283;72180;-92
2022/10/15 06:37:38;;;;;;;7.30;4.00;;;;;;;19.46;36.05;101266.40;107841;1282;66189;-91
2022/10/15 06:43:32;;;;;;;7.60;4.30;;;;;;;19.47;35.92;101271.16;107777;1283;81649;-92
2022/10/15 06:51:59;;;;;;;8.90;4.00;;;;;;;19.46;35.71;101272.27;107477;1284;67549;-93
2022/10/15 06:55:06;;;;;;;6.60;3.90;;;;;;;19.45;35.50;101277.40;107507;1284;73057;-90
2022/10/15 07:00:56;;;;;;;7.00;3.80;;;;;;;19.44;35.41;101276.05;107477;1284;72268;-90
2022/10/15 07:10:27;;;;;;;9.70;3.70;;;;;;;19.43;35.23;101275.48;107589;1283;73299;-92
2022/10/15 07:16:29;;;;;;;8.00;3.60;;;;;;;19.43;35.30;101271.80;107561;1283;66204;-91
2022/10/15 07:19:32;;;;;;;6.80;3.70;;;;;;;19.43;35.19;101277.10;107561;1283;66813;-92
2022/10/15 07:25:28;;;;;;;6.70;3.40;;;;;;;19.44;35.14;101278.60;107725;1282;72898;-90
2022/10/15 07:28:32;;;;;;;7.60;3.50;;;;;;;19.44;35.08;101280.34;107779;1283;81905;-92
2022/10/15 07:31:39;;;;;;;8.20;3.90;;;;;;;19.44;35.12;101279.05;107771;1283;72248;-92
2022/10/15 07:38:06;;;;;;;8.70;3.70;;;;;;;19.45;35.15;101282.14;107712;1283;66384;-91
2022/10/15 07:46:36;;;;;;;8.20;3.50;;;;;;;19.43;35.23;101276.54;107759;1283;71492;-93
2022/10/15 07:55:05;;;;;;;10.10;3.80;;;;;;;19.45;35.23;101279.02;107799;1282;72530;-92
2022/10/15 08:01:02;;;;;;;5.80;3.60;;;;;;;19.44;35.29;101282.09;107672;1283;71607;-91
2022/10/15 08:06:48;;;;;;;6.90;3.50;;;;;;;19.45;35.36;101281.99;107761;1283;66097;-93
2022/10/15 08:13:03;;;;;;;7.20;3.60;;;;;;;19.45;35.41;101282.14;107505;1284;81156;-92
2022/10/15 08:18:48;;;;;;;7.10;3.60;;;;;;;19.46;35.44;101284.41;107432;1283;66167;-90
2022/10/15 08:24:29;;;;;;;10.00;3.90;;;;;;;19.46;35.44;101287.02;107430;1285;73412;-92
2022/10/15 08:30:14;;;;;;;8.00;3.70;;;;;;;19.47;35.51;101288.66;107605;1284;72154;-92
2022/10/15 08:36:20;;;;;;;8.50;3.70;;;;;;;19.47;35.59;101284.17;107530;1284;66977;-91
2022/10/15 08:42:35;;;;;;;7.50;3.60;;;;;;;19.48;35.53;101294.66;107533;1284;81663;-92
2022/10/15 08:48:29;;;;;;;5.80;3.70;;;;;;;19.48;35.55;101299.27;107485;1284;68463;-92
2022/10/15 08:54:23;;;;;;;8.50;4.10;;;;;;;19.49;35.59;101302.34;107580;1283;73192;-92
2022/10/15 08:57:30;;;;;;;10.30;4.00;;;;;;;19.49;35.61;101296.92;107507;1284;81766;-92
2022/10/15 09:03:50;;;;;;;6.00;3.50;;;;;;;19.49;35.74;101299.84;107667;1284;66119;-92
2022/10/15 09:09:33;;;;;;;8.00;4.10;;;;;;;19.51;35.81;101299.83;107720;1280;73365;-92
2022/10/15 09:15:32;;;;;;;8.10;4.10;;;;;;;19.52;35.83;101301.41;107718;1282;71700;-92
2022/10/15 09:21:13;;;;;;;7.20;3.90;;;;;;;19.52;35.85;101298.98;107712;1283;66136;-92
2022/10/15 09:27:10;;;;;;;8.20;3.90;;;;;;;19.53;35.91;101291.64;107711;1283;81400;-90
2022/10/15 09:33:46;;;;;;;7.10;3.80;;;;;;;19.52;36.02;101289.07;107717;1283;66787;-91
2022/10/15 09:39:31;;;;;;;7.40;3.70;;;;;;;19.54;36.15;101290.33;107780;1283;73296;-92
2022/10/15 09:45:19;;;;;;;5.90;4.00;;;;;;;19.55;36.02;101284.02;107599;1284;72235;-92
2022/10/15 09:51:06;;;;;;;7.00;3.70;;;;;;;19.56;36.21;101281.54;107676;1284;66796;-92
2022/10/15 09:57:08;;;;;;;6.90;3.90;;;;;;;19.56;36.28;101272.40;107543;1284;81897;-91
2022/10/15 10:03:18;;;;;;;5.80;3.60;;;;;;;19.55;36.25;101269.31;107707;1283;66367;-92
2022/10/15 10:09:07;;;;;;;6.40;4.10;;;;;;;19.57;36.26;101265.77;107819;1283;73439;-91
2022/10/15 10:15:17;;;;;;;11.80;4.20;;;;;;;19.58;36.38;101268.20;107721;1283;71852;-92
2022/10/15 10:26:33;;;;;;;9.60;4.50;;;;;;;19.60;36.38;101256.64;107755;1283;81488;-92
2022/10/15 10:32:16;;;;;;;;;;;;;;;19.58;36.51;101261.92;107695;1283;66890;-92
2022/10/15 10:38:11;;;;;;;9.00;4.60;;;;;;;19.59;36.43;101259.17;107798;1283;72585;-91
2022/10/15 10:46:35;;;;;;;8.60;4.60;;;;;;;19.61;36.64;101246.15;107891;1284;66361;-92
2022/10/15 10:55:31;;;;;;;8.10;4.90;;;;;;;19.62;36.47;101237.19;107679;1283;81986;-92
2022/10/15 11:01:29;;;;;;;8.70;5.40;;;;;;;19.62;36.57;101236.13;107733;1283;66890;-92
2022/10/15 11:07:32;;;;;;;8.20;5.10;;;;;;;19.64;36.62;101232.10;107864;1284;73746;-91
2022/10/15 11:17:32;;;;;;;11.30;5.30;;;;;;;19.64;36.64;101218.23;107611;1287;66077;-92
2022/10/15 11:23:44;;;;;;;14.70;5.90;;;;;;;19.64;36.67;101219.98;103959;1282;5007220;-92
2022/10/15 11:26:49;;;;;;;10.40;5.20;;;;;;;19.63;36.61;101221.48;107813;1282;82025;-91
2022/10/15 11:32:55;;;;;;;10.60;4.90;;;;;;;19.64;36.78;101217.05;107891;1283;66763;-92
2022/10/15 11:45:28;;;;;;;8.60;5.20;;;;;;;19.65;36.72;101214.06;107824;1282;72031;-92
2022/10/15 11:51:10;;;;;;;9.10;5.30;;;;;;;19.66;36.65;101202.29;107781;1283;67100;-92
2022/10/15 11:56:59;;;;;;;9.90;5.10;;;;;;;19.67;36.67;101202.50;107754;1283;81956;-92
2022/10/15 12:00:45;;;;;;;10.70;5.20;;;;;;;19.67;36.65;101201.85;107801;1283;72268;-92
2022/10/15 12:06:46;;;;;;;9.40;5.00;;;;;;;19.68;36.72;101197.56;107754;1283;67036;-92
2022/10/15 12:12:54;;;;;;;8.00;5.30;;;;;;;19.69;36.80;101203.14;107769;1283;80774;-90
2022/10/15 12:21:44;;;;;;;9.00;5.10;;;;;;;19.70;36.67;101207.49;107836;1283;67241;-92
2022/10/15 12:24:56;;;;;;;11.70;4.90;;;;;;;19.70;36.73;101212.09;107803;1283;72168;-91
2022/10/15 12:31:12;;;;;;;8.80;5.00;;;;;;;19.70;36.62;101212.31;107843;1283;72379;-92
2022/10/15 12:37:08;;;;;;;8.80;4.70;;;;;;;19.71;36.68;101213.70;107778;1282;66774;-92
2022/10/15 12:43:11;;;;;;;6.10;4.60;;;;;;;19.72;36.82;101208.91;107735;1282;82045;-91
2022/10/15 12:49:07;;;;;;;8.00;4.70;;;;;;;19.73;36.57;101206.64;107761;1283;67551;-92
2022/10/15 12:51:55;;;;;;;10.70;5.00;;;;;;;19.73;36.68;101206.70;107745;1283;68409;-92
2022/10/15 12:57:50;;;;;;;6.70;4.30;;;;;;;19.74;36.61;101213.75;107770;1283;81755;-93
2022/10/15 13:04:02;;;;;;;6.70;4.60;;;;;;;19.75;36.70;101208.80;107739;1282;68067;-92
2022/10/15 13:09:52;;;;;;;6.30;4.50;;;;;;;19.76;36.60;101217.81;107795;1283;72597;-92
2022/10/15 13:15:46;;;;;;;8.00;4.50;;;;;;;19.77;36.74;101222.27;107795;1283;71487;-92
2022/10/15 13:21:27;;;;;;;6.30;4.70;;;;;;;19.78;36.69;101225.77;107795;1283;67441;-92
2022/10/15 13:27:06;;;;;;;11.30;4.80;;;;;;;19.78;36.68;101221.83;107742;1283;81686;-92
2022/10/15 13:30:23;;;;;;;;;;;;;;;;;;;;;
2022/10/15 13:39:22;;;;;;;8.10;4.60;;;;;;;19.73;36.56;101225.02;107803;1282;74085;-93
2022/10/15 13:45:08;;;;;;;9.60;4.60;;;;;;;19.72;36.55;101221.90;107749;1283;72107;-92
2022/10/15 13:48:21;;;;;;;5.50;4.30;;;;;;;19.71;36.59;101220.34;107807;1283;66939;-92
2022/10/15 13:54:11;;;;;;;7.70;4.50;;;;;;;19.71;36.61;101217.73;107801;1283;72893;-91
2022/10/15 14:05:53;;;;;;;5.70;4.10;;;;;;;19.68;36.44;101210.48;107702;1282;66533;-91
2022/10/15 14:08:57;;;;;;;7.40;4.30;;;;;;;19.67;36.46;101210.52;107817;1282;73465;-92
2022/10/15 14:14:51;;;;;;;6.80;3.90;;;;;;;19.66;36.36;101198.23;107740;1282;72405;-92
2022/10/15 14:23:16;;;;;;;7.80;4.00;;;;;;;19.65;36.36;101200.43;107985;1283;73492;-92
2022/10/15 14:26:20;;;;;;;6.30;4.40;;;;;;;19.64;36.33;101196.92;107769;1283;82073;-92
2022/10/15 14:32:45;;;;;;;5.30;4.40;;;;;;;19.63;36.32;101190.59;107835;1283;66021;-91
2022/10/15 14:38:29;;;;;;;6.50;4.00;;;;;;;19.62;36.17;101192.41;107813;1281;74178;-92
2022/10/15 14:44:27;;;;;;;5.80;4.30;;;;;;;19.59;36.15;101194.04;107764;1282;72041;-91
2022/10/15 14:50:06;;;;;;;7.30;4.40;;;;;;;19.60;36.06;101193.20;107771;1283;66884;-91
2022/10/15 14:55:47;;;;;;;6.50;4.40;;;;;;;19.59;36.05;101192.13;107701;1283;81277;-90
2022/10/15 14:58:56;;;;;;;6.80;4.10;;;;;;;19.59;35.89;101194.10;107809;1283;72262;-93
2022/10/15 15:04:55;;;;;;;6.00;4.50;;;;;;;19.59;35.84;101186.69;107532;1282;66140;-92
2022/10/15 15:10:56;;;;;;;5.50;4.10;;;;;;;19.58;35.91;101188.31;107724;1283;81784;-90
2022/10/15 15:14:08;;;;;;;6.30;3.80;;;;;;;19.58;35.90;101192.98;107720;1283;72171;-92
2022/10/15 15:20:03;;;;;;;8.50;4.20;;;;;;;19.58;35.87;101194.98;107678;1282;66191;-92
2022/10/15 15:26:18;;;;;;;5.50;3.90;;;;;;;19.56;35.85;101195.22;107831;1282;81949;-90
2022/10/15 15:31:54;;;;;;;9.50;4.40;;;;;;;19.57;35.81;101202.73;107729;1283;66432;-92
2022/10/15 15:37:30;;;;;;;7.20;4.10;;;;;;;19.57;35.76;101201.15;107784;1283;74112;-90
2022/10/15 15:43:18;;;;;;;6.20;4.00;;;;;;;19.56;35.91;101205.67;107782;1283;72154;31
2022/10/15 15:49:18;;;;;;;7.20;4.90;;;;;;;19.55;35.88;101215.15;107908;1282;65317;-92
2022/10/15 15:55:37;;;;;;;9.70;5.10;;;;;;;19.55;35.87;101219.84;107574;1282;81714;-93
2022/10/15 16:01:35;;;;;;;6.60;4.60;;;;;;;19.54;35.94;101228.30;107976;1283;67794;-92
2022/10/15 16:05:00;;;;;;;9.30;5.30;;;;;;;19.52;35.97;101229.77;107239;1282;67034;-92
2022/10/15 16:08:13;;;;;;;8.80;5.50;;;;;;;19.52;36.05;101235.13;107696;1282;73505;-91
2022/10/15 16:14:16;;;;;;;13.60;5.70;;;;;;;19.52;36.03;101243.08;107877;1283;71444;-92
2022/10/15 16:20:09;;;;;;;7.10;5.40;;;;;;;19.51;35.97;101243.37;107788;1282;66207;-92
2022/10/15 16:26:23;;;;;;;9.20;5.70;;;;;;;19.50;36.01;101246.77;107767;1282;81696;-92
2022/10/15 16:32:01;;;;;;;12.00;5.80;;;;;;;19.50;36.05;101249.68;107834;1284;66930;-91
2022/10/15 16:37:52;;;;;;;13.90;6.80;;;;;;;19.50;36.11;101256.98;107819;1282;74366;-92
2022/10/15 16:43:30;;;;;;;13.90;8.80;;;;;;;19.50;36.12;101256.36;107820;1282;71727;-92
2022/10/15 16:49:23;;;;;;;26.10;15.00;;;;;;;19.50;36.15;101263.66;107780;1282;66232;-92
2022/10/15 16:55:31;;;;;;;24.60;16.90;;;;;;;19.49;36.14;101270.48;107653;1282;82023;-93
2022/10/15 17:01:11;;;;;;;31.00;18.50;;;;;;;19.48;36.21;101279.10;107687;1284;67921;-91
2022/10/15 17:06:56;;;;;;;30.90;19.70;;;;;;;19.47;36.29;101288.42;107465;1282;74236;-90
2022/10/15 17:13:08;;;;;;;28.10;17.20;;;;;;;19.47;36.30;101287.64;107519;1282;72029;-90
2022/10/15 17:18:57;;;;;;;22.10;14.20;;;;;;;19.47;36.32;101298.32;107767;1283;68091;31
2022/10/15 17:24:56;;;;;;;22.30;12.40;;;;;;;19.43;36.39;101302.11;107450;1284;81919;31
2022/10/15 17:30:36;;;;;;;18.00;11.70;;;;;;;19.44;36.36;101300.39;107548;1283;66724;-92
2022/10/15 17:41:48;;;;;;;18.70;11.30;;;;;;;19.44;36.34;101309.63;107476;1284;71529;-93
2022/10/15 17:50:37;;;;;;;21.50;10.60;;;;;;;19.41;36.49;101306.37;107522;1282;74457;-93
2022/10/15 18:02:23;;;;;;;17.80;10.00;;;;;;;19.41;36.53;101315.14;107546;1284;65309;-93
2022/10/15 18:14:07;;;;;;;19.70;10.60;;;;;;;19.40;36.56;101320.23;107504;1282;67218;-92
2022/10/15 18:20:43;;;;;;;19.60;10.90;;;;;;;19.39;36.60;101330.86;107765;1283;73351;-94
2022/10/15 18:26:20;;;;;;;19.30;12.00;;;;;;;19.39;36.57;101332.45;107806;1283;72347;-92
2022/10/15 18:32:19;;;;;;;20.40;12.00;;;;;;;19.39;36.64;101339.13;107773;1283;66277;-92
2022/10/15 18:40:46;;;;;;;17.50;11.10;;;;;;;19.38;36.64;101344.63;107855;1282;71808;-92
2022/10/15 18:46:27;;;;;;;18.70;11.80;;;;;;;19.38;36.68;101343.88;107777;1283;68379;-92
2022/10/15 18:49:32;;;;;;;18.60;11.30;;;;;;;19.37;36.70;101343.45;107798;1283;73338;-91
2022/10/15 18:52:33;;;;;;;17.10;11.30;;;;;;;19.37;36.78;101347.72;107752;1283;81125;-92
2022/10/15 18:58:49;;;;;;;19.40;11.60;;;;;;;19.37;36.77;101351.36;107758;1283;67323;-90
2022/10/15 19:04:29;;;;;;;18.90;11.00;;;;;;;19.36;36.77;101343.52;107859;1283;73624;-93
2022/10/15 19:10:06;;;;;;;16.50;11.20;;;;;;;19.36;36.77;101351.39;107734;1283;72371;-92
2022/10/15 19:18:34;;;;;;;16.80;12.10;;;;;;;19.36;36.88;101353.73;107857;1283;74269;-91
2022/10/15 19:24:32;;;;;;;16.70;11.20;;;;;;;19.32;36.94;101358.95;107812;1283;71770;-92
2022/10/15 19:30:17;;;;;;;19.70;11.20;;;;;;;19.32;37.00;101362.73;107627;1284;66058;-92
2022/10/15 19:39:20;;;;;;;16.80;10.80;;;;;;;19.32;37.03;101374.92;107687;1282;72465;-92
2022/10/15 19:45:36;;;;;;;17.90;12.00;;;;;;;19.31;37.04;101379.76;107680;1283;66176;-92
2022/10/15 19:51:34;;;;;;;19.90;11.30;;;;;;;19.31;37.12;101377.77;107804;1284;81676;-92
2022/10/15 19:57:20;;;;;;;19.40;11.10;;;;;;;19.31;37.07;101385.21;107538;1283;66136;31
2022/10/15 20:06:22;;;;;;;18.80;11.70;;;;;;;19.30;37.19;101386.87;107673;1283;81707;31
2022/10/15 20:09:26;;;;;;;16.00;11.10;;;;;;;19.30;37.18;101385.04;107658;1284;71842;-92
2022/10/15 20:15:45;;;;;;;18.30;10.80;;;;;;;19.29;37.25;101388.69;107530;1282;66167;-91
2022/10/15 20:24:39;;;;;;;14.70;9.90;;;;;;;19.29;37.34;101395.20;107669;1283;71856;-93
2022/10/15 20:27:56;;;;;;;18.10;10.30;;;;;;;19.28;37.32;101393.56;107703;1283;66792;-92
2022/10/15 20:33:54;;;;;;;18.80;10.20;;;;;;;19.28;37.38;101400.08;107689;1282;74096;-93
2022/10/15 20:39:48;;;;;;;16.10;10.00;;;;;;;19.28;37.43;101400.94;107705;1283;71940;-92
2022/10/15 20:48:24;;;;;;;14.50;9.60;;;;;;;19.27;37.51;101400.36;107915;1283;73508;-91
2022/10/15 20:52:02;;;;;;;16.80;9.90;;;;;;;19.26;37.54;101395.77;107914;1283;82090;-92
2022/10/15 20:58:23;;;;;;;14.00;8.60;;;;;;;19.25;37.58;101398.35;107621;1282;68371;-91
2022/10/15 21:10:08;;;;;;;18.10;9.20;;;;;;;19.24;37.68;101397.20;107987;1283;71952;-92
2022/10/15 21:18:31;;;;;;;14.40;9.40;;;;;;;19.24;37.79;101402.20;107971;1282;73344;-92
2022/10/15 21:21:54;;;;;;;15.50;9.50;;;;;;;19.23;37.74;101412.40;107820;1282;81822;-92
2022/10/15 21:27:46;;;;;;;17.10;9.50;;;;;;;19.22;37.86;101416.55;107793;1284;66170;-92
2022/10/15 21:33:28;;;;;;;18.20;10.50;;;;;;;19.22;37.89;101423.10;107511;1282;73301;-90
2022/10/15 21:39:09;;;;;;;17.60;9.70;;;;;;;19.21;38.06;101419.20;107480;1284;71337;-92
2022/10/15 21:42:12;;;;;;;18.60;10.10;;;;;;;19.21;38.02;101420.27;107466;1285;66295;-91
2022/10/15 21:48:02;;;;;;;18.90;10.70;;;;;;;19.20;38.01;101414.77;107743;1283;74075;-91
2022/10/15 21:53:37;;;;;;;24.00;10.90;;;;;;;19.20;38.23;101413.86;107774;1282;72148;-92
2022/10/15 22:02:07;;;;;;;20.90;11.70;;;;;;;19.20;38.32;101419.56;107620;1284;74060;-92
2022/10/15 22:08:01;;;;;;;23.20;12.80;;;;;;;19.18;38.37;101418.56;107462;1285;71541;-92
2022/10/15 22:13:38;;;;;;;22.00;13.50;;;;;;;19.18;38.39;101421.40;107578;1282;66933;-91
2022/10/15 22:19:34;;;;;;;23.20;13.90;;;;;;;19.17;38.52;101440.26;107507;1284;80376;-92
2022/10/15 22:25:19;;;;;;;24.20;14.90;;;;;;;19.17;38.48;101437.30;107688;1284;66108;-92
2022/10/15 22:34:19;;;;;;;24.30;15.80;;;;;;;19.16;38.54;101449.48;107490;1283;81872;-90
2022/10/15 22:40:18;;;;;;;25.40;15.40;;;;;;;19.15;38.56;101459.39;107527;1284;66814;-91
2022/10/15 22:45:59;;;;;;;26.10;15.90;;;;;;;19.14;38.48;101463.76;107477;1283;66659;-92
2022/10/15 22:51:36;;;;;;;25.70;15.60;;;;;;;19.14;38.49;101466.91;107551;1284;72306;-90
2022/10/15 22:57:40;;;;;;;23.80;15.10;;;;;;;19.13;38.45;101465.41;107543;1284;66222;-92
2022/10/15 23:03:14;;;;;;;25.60;15.50;;;;;;;19.12;38.45;101465.30;107668;1283;82240;-93
2022/10/15 23:09:01;;;;;;;25.00;14.90;;;;;;;19.10;38.39;101469.30;107623;1283;66106;-91
2022/10/15 23:14:52;;;;;;;25.60;15.70;;;;;;;19.09;38.33;101469.11;107691;1283;74336;-91
2022/10/15 23:20:34;;;;;;;23.50;15.20;;;;;;;19.08;38.28;101475.78;107512;1283;72412;31
2022/10/15 23:23:57;;;;;;;26.10;15.00;;;;;;;19.08;38.18;101474.99;103487;1283;5633458;-92
2022/10/15 23:27:02;;;;;;;27.00;15.10;;;;;;;19.06;38.23;101480.15;107735;1282;66949;-90
2022/10/15 23:32:59;;;;;;;23.50;15.10;;;;;;;19.05;38.09;101482.83;107574;1284;82044;-92
2022/10/15 23:35:48;;;;;;;23.10;14.50;;;;;;;19.05;38.07;101480.94;107778;1285;72125;-92
2022/10/15 23:38:57;;;;;;;22.90;14.60;;;;;;;19.04;38.06;101479.59;107541;1285;65479;-92
2022/10/15 23:42:00;;;;;;;22.10;14.00;;;;;;;19.04;38.05;101486.33;107670;1282;66211;-92
2022/10/15 23:45:12;;;;;;;20.10;14.10;;;;;;;19.03;38.10;101489.11;107514;1284;74117;-92
2022/10/15 23:51:24;;;;;;;21.20;15.00;;;;;;;19.02;38.00;101497.80;107652;1284;72131;-92
2022/10/15 23:57:01;;;;;;;22.60;14.30;;;;;;;19.01;37.97;101502.59;107744;1283;66147;-91
